sensor_id;sensor_type;location;lat;lon;timestamp;P1;durP1;ratioP1;P2;durP2;ratioP2
41943;SDS011;27636;52.610;13.244;2022-08-03T00:03:44;8.73;;;3.83;;
41943;SDS011;27636;52.610;13.244;2022-08-03T00:08:48;7.72;;;3.92;;
41943;SDS011;27636;52.610;13.244;2022-08-03T00:13:51;7.05;;;3.47;;
41943;SDS011;27636;52.610;13.244;2022-08-03T00:18:56;8.82;;;3.35;;
41943;SDS011;27636;52.610;13.244;2022-08-03T00:24:02;9.20;;;4.28;;
41943;SDS011;27636;52.610;13.244;2022-08-03T00:29:06;7.95;;;3.67;;
41943;SDS011;27636;52.610;13.244;2022-08-03T00:34:12;9.13;;;4.05;;
41943;SDS011;27636;52.610;13.244;2022-08-03T00:39:16;7.30;;;3.75;;
41943;SDS011;27636;52.610;13.244;2022-08-03T00:44:19;6.85;;;3.47;;
41943;SDS011;27636;52.610;13.244;2022-08-03T00:49:24;9.15;;;3.70;;
41943;SDS011;27636;52.610;13.244;2022-08-03T00:54:27;9.40;;;4.68;;
41943;SDS011;27636;52.610;13.244;2022-08-03T00:59:31;8.35;;;4.72;;
41943;SDS011;27636;52.610;13.244;2022-08-03T01:04:37;7.45;;;4.28;;
41943;SDS011;27636;52.610;13.244;2022-08-03T01:09:42;8.80;;;4.13;;
41943;SDS011;27636;52.610;13.244;2022-08-03T01:15:02;9.48;;;4.10;;
41943;SDS011;27636;52.610;13.244;2022-08-03T01:20:14;12.25;;;4.80;;
41943;SDS011;27636;52.610;13.244;2022-08-03T01:25:23;7.35;;;3.80;;
41943;SDS011;27636;52.610;13.244;2022-08-03T01:30:37;11.70;;;5.03;;
41943;SDS011;27636;52.610;13.244;2022-08-03T01:35:45;9.00;;;3.92;;
41943;SDS011;27636;52.610;13.244;2022-08-03T01:40:51;11.15;;;4.35;;
41943;SDS011;27636;52.610;13.244;2022-08-03T01:45:57;9.95;;;4.30;;
41943;SDS011;27636;52.610;13.244;2022-08-03T01:56:04;6.97;;;3.88;;
41943;SDS011;27636;52.610;13.244;2022-08-03T02:01:10;9.50;;;4.43;;
41943;SDS011;27636;52.610;13.244;2022-08-03T02:06:15;9.32;;;5.07;;
41943;SDS011;27636;52.610;13.244;2022-08-03T02:11:41;8.00;;;4.55;;
41943;SDS011;27636;52.610;13.244;2022-08-03T02:16:46;7.18;;;4.28;;
41943;SDS011;27636;52.610;13.244;2022-08-03T02:21:52;14.00;;;4.43;;
41943;SDS011;27636;52.610;13.244;2022-08-03T02:27:03;9.43;;;4.20;;
41943;SDS011;27636;52.610;13.244;2022-08-03T02:32:15;9.63;;;3.88;;
41943;SDS011;27636;52.610;13.244;2022-08-03T02:37:23;10.70;;;4.90;;
41943;SDS011;27636;52.610;13.244;2022-08-03T02:42:30;9.85;;;4.40;;
41943;SDS011;27636;52.610;13.244;2022-08-03T02:52:56;8.52;;;4.38;;
41943;SDS011;27636;52.610;13.244;2022-08-03T02:58:01;7.43;;;3.88;;
41943;SDS011;27636;52.610;13.244;2022-08-03T03:03:07;7.60;;;4.10;;
41943;SDS011;27636;52.610;13.244;2022-08-03T03:08:14;9.50;;;4.20;;
41943;SDS011;27636;52.610;13.244;2022-08-03T03:13:27;10.27;;;4.35;;
41943;SDS011;27636;52.610;13.244;2022-08-03T03:18:33;8.30;;;4.50;;
41943;SDS011;27636;52.610;13.244;2022-08-03T03:23:40;10.48;;;5.07;;
41943;SDS011;27636;52.610;13.244;2022-08-03T03:28:43;11.05;;;4.45;;
41943;SDS011;27636;52.610;13.244;2022-08-03T03:33:48;9.68;;;5.22;;
41943;SDS011;27636;52.610;13.244;2022-08-03T03:38:51;8.68;;;4.72;;
41943;SDS011;27636;52.610;13.244;2022-08-03T03:43:55;10.77;;;5.55;;
41943;SDS011;27636;52.610;13.244;2022-08-03T03:49:00;10.93;;;4.90;;
41943;SDS011;27636;52.610;13.244;2022-08-03T03:54:03;9.60;;;4.83;;
41943;SDS011;27636;52.610;13.244;2022-08-03T03:59:09;11.00;;;4.25;;
41943;SDS011;27636;52.610;13.244;2022-08-03T04:04:14;7.97;;;4.32;;
41943;SDS011;27636;52.610;13.244;2022-08-03T04:09:36;11.15;;;4.60;;
41943;SDS011;27636;52.610;13.244;2022-08-03T04:15:09;10.85;;;4.45;;
41943;SDS011;27636;52.610;13.244;2022-08-03T04:20:16;9.88;;;4.28;;
41943;SDS011;27636;52.610;13.244;2022-08-03T04:25:22;6.93;;;4.20;;
41943;SDS011;27636;52.610;13.244;2022-08-03T04:30:30;8.90;;;4.53;;
41943;SDS011;27636;52.610;13.244;2022-08-03T04:35:38;7.38;;;4.05;;
41943;SDS011;27636;52.610;13.244;2022-08-03T04:41:05;7.03;;;4.00;;
41943;SDS011;27636;52.610;13.244;2022-08-03T04:46:10;8.15;;;4.43;;
41943;SDS011;27636;52.610;13.244;2022-08-03T04:51:15;7.50;;;4.10;;
41943;SDS011;27636;52.610;13.244;2022-08-03T04:56:19;11.60;;;4.65;;
41943;SDS011;27636;52.610;13.244;2022-08-03T05:01:22;10.75;;;4.13;;
41943;SDS011;27636;52.610;13.244;2022-08-03T05:06:26;9.38;;;3.90;;
41943;SDS011;27636;52.610;13.244;2022-08-03T05:11:30;11.68;;;4.55;;
41943;SDS011;27636;52.610;13.244;2022-08-03T05:16:33;9.65;;;3.75;;
41943;SDS011;27636;52.610;13.244;2022-08-03T05:21:37;7.60;;;3.78;;
41943;SDS011;27636;52.610;13.244;2022-08-03T05:26:54;9.07;;;3.47;;
41943;SDS011;27636;52.610;13.244;2022-08-03T05:31:57;6.47;;;3.08;;
41943;SDS011;27636;52.610;13.244;2022-08-03T05:37:01;7.35;;;3.50;;
41943;SDS011;27636;52.610;13.244;2022-08-03T05:47:08;6.38;;;3.20;;
41943;SDS011;27636;52.610;13.244;2022-08-03T05:52:12;8.75;;;3.10;;
41943;SDS011;27636;52.610;13.244;2022-08-03T05:57:19;7.13;;;3.50;;
41943;SDS011;27636;52.610;13.244;2022-08-03T06:02:23;8.83;;;3.27;;
41943;SDS011;27636;52.610;13.244;2022-08-03T06:07:27;11.27;;;2.83;;
41943;SDS011;27636;52.610;13.244;2022-08-03T06:12:31;9.13;;;2.63;;
41943;SDS011;27636;52.610;13.244;2022-08-03T06:17:43;12.45;;;2.80;;
41943;SDS011;27636;52.610;13.244;2022-08-03T06:22:48;4.30;;;1.92;;
41943;SDS011;27636;52.610;13.244;2022-08-03T06:28:02;5.78;;;2.10;;
41943;SDS011;27636;52.610;13.244;2022-08-03T06:33:06;5.72;;;1.95;;
41943;SDS011;27636;52.610;13.244;2022-08-03T06:38:11;12.45;;;1.98;;
41943;SDS011;27636;52.610;13.244;2022-08-03T06:43:14;6.38;;;2.17;;
41943;SDS011;27636;52.610;13.244;2022-08-03T06:48:17;2.97;;;1.77;;
41943;SDS011;27636;52.610;13.244;2022-08-03T06:53:23;4.03;;;1.75;;
41943;SDS011;27636;52.610;13.244;2022-08-03T06:58:27;4.55;;;1.58;;
41943;SDS011;27636;52.610;13.244;2022-08-03T07:08:36;3.28;;;1.40;;
41943;SDS011;27636;52.610;13.244;2022-08-03T07:13:39;6.43;;;1.58;;
41943;SDS011;27636;52.610;13.244;2022-08-03T07:18:43;5.40;;;1.40;;
41943;SDS011;27636;52.610;13.244;2022-08-03T07:23:48;4.18;;;1.30;;
41943;SDS011;27636;52.610;13.244;2022-08-03T07:28:51;7.43;;;1.48;;
41943;SDS011;27636;52.610;13.244;2022-08-03T07:33:54;4.88;;;1.55;;
41943;SDS011;27636;52.610;13.244;2022-08-03T07:38:59;2.50;;;1.40;;
41943;SDS011;27636;52.610;13.244;2022-08-03T07:44:19;6.53;;;1.58;;
41943;SDS011;27636;52.610;13.244;2022-08-03T07:49:22;4.82;;;1.80;;
41943;SDS011;27636;52.610;13.244;2022-08-03T07:54:27;3.95;;;1.70;;
41943;SDS011;27636;52.610;13.244;2022-08-03T07:59:30;5.45;;;1.60;;
41943;SDS011;27636;52.610;13.244;2022-08-03T08:09:57;4.47;;;1.50;;
41943;SDS011;27636;52.610;13.244;2022-08-03T08:15:00;10.30;;;1.88;;
41943;SDS011;27636;52.610;13.244;2022-08-03T08:20:05;5.07;;;1.80;;
41943;SDS011;27636;52.610;13.244;2022-08-03T08:25:11;2.72;;;1.20;;
41943;SDS011;27636;52.610;13.244;2022-08-03T08:30:16;4.65;;;1.65;;
41943;SDS011;27636;52.610;13.244;2022-08-03T08:35:21;3.33;;;1.55;;
41943;SDS011;27636;52.610;13.244;2022-08-03T08:40:25;4.00;;;1.75;;
41943;SDS011;27636;52.610;13.244;2022-08-03T08:45:29;3.67;;;1.80;;
41943;SDS011;27636;52.610;13.244;2022-08-03T08:50:33;3.22;;;1.80;;
41943;SDS011;27636;52.610;13.244;2022-08-03T08:55:40;5.88;;;1.65;;
41943;SDS011;27636;52.610;13.244;2022-08-03T09:01:01;4.13;;;1.58;;
41943;SDS011;27636;52.610;13.244;2022-08-03T09:06:06;4.57;;;2.67;;
41943;SDS011;27636;52.610;13.244;2022-08-03T09:11:10;6.38;;;2.08;;
41943;SDS011;27636;52.610;13.244;2022-08-03T09:16:14;3.67;;;1.80;;
41943;SDS011;27636;52.610;13.244;2022-08-03T09:21:20;5.55;;;2.20;;
41943;SDS011;27636;52.610;13.244;2022-08-03T09:26:37;4.10;;;1.65;;
41943;SDS011;27636;52.610;13.244;2022-08-03T09:31:40;3.45;;;1.42;;
41943;SDS011;27636;52.610;13.244;2022-08-03T09:36:46;4.72;;;1.73;;
41943;SDS011;27636;52.610;13.244;2022-08-03T09:42:04;4.43;;;1.52;;
41943;SDS011;27636;52.610;13.244;2022-08-03T09:47:08;3.50;;;1.70;;
41943;SDS011;27636;52.610;13.244;2022-08-03T09:52:13;3.38;;;1.42;;
41943;SDS011;27636;52.610;13.244;2022-08-03T09:57:38;4.25;;;2.08;;
41943;SDS011;27636;52.610;13.244;2022-08-03T10:02:45;4.00;;;1.48;;
41943;SDS011;27636;52.610;13.244;2022-08-03T10:07:51;2.30;;;1.40;;
41943;SDS011;27636;52.610;13.244;2022-08-03T10:17:59;3.60;;;1.40;;
41943;SDS011;27636;52.610;13.244;2022-08-03T10:28:08;4.90;;;2.35;;
41943;SDS011;27636;52.610;13.244;2022-08-03T10:33:17;4.53;;;1.80;;
41943;SDS011;27636;52.610;13.244;2022-08-03T10:38:42;6.97;;;1.90;;
41943;SDS011;27636;52.610;13.244;2022-08-03T10:43:51;3.28;;;1.50;;
41943;SDS011;27636;52.610;13.244;2022-08-03T10:49:00;4.72;;;1.70;;
41943;SDS011;27636;52.610;13.244;2022-08-03T10:54:04;4.00;;;1.52;;
41943;SDS011;27636;52.610;13.244;2022-08-03T10:59:14;4.70;;;1.52;;
41943;SDS011;27636;52.610;13.244;2022-08-03T11:04:29;3.30;;;1.70;;
41943;SDS011;27636;52.610;13.244;2022-08-03T11:09:39;6.47;;;1.83;;
41943;SDS011;27636;52.610;13.244;2022-08-03T11:14:45;4.20;;;1.58;;
41943;SDS011;27636;52.610;13.244;2022-08-03T11:19:50;4.72;;;1.75;;
41943;SDS011;27636;52.610;13.244;2022-08-03T11:24:59;4.45;;;1.73;;
41943;SDS011;27636;52.610;13.244;2022-08-03T11:30:05;5.05;;;1.75;;
41943;SDS011;27636;52.610;13.244;2022-08-03T11:35:10;4.30;;;2.30;;
41943;SDS011;27636;52.610;13.244;2022-08-03T11:45:48;3.50;;;1.80;;
41943;SDS011;27636;52.610;13.244;2022-08-03T11:50:59;4.75;;;1.70;;
41943;SDS011;27636;52.610;13.244;2022-08-03T11:56:03;3.78;;;1.55;;
41943;SDS011;27636;52.610;13.244;2022-08-03T12:01:15;2.58;;;1.23;;
41943;SDS011;27636;52.610;13.244;2022-08-03T12:06:24;5.45;;;1.50;;
41943;SDS011;27636;52.610;13.244;2022-08-03T12:16:33;1.65;;;1.15;;
41943;SDS011;27636;52.610;13.244;2022-08-03T12:21:44;2.00;;;1.10;;
41943;SDS011;27636;52.610;13.244;2022-08-03T12:26:58;9.65;;;2.08;;
41943;SDS011;27636;52.610;13.244;2022-08-03T12:32:04;4.40;;;1.70;;
41943;SDS011;27636;52.610;13.244;2022-08-03T12:37:07;9.63;;;1.60;;
41943;SDS011;27636;52.610;13.244;2022-08-03T12:42:28;4.20;;;1.52;;
41943;SDS011;27636;52.610;13.244;2022-08-03T12:52:55;3.70;;;1.75;;
41943;SDS011;27636;52.610;13.244;2022-08-03T12:57:58;4.28;;;1.88;;
41943;SDS011;27636;52.610;13.244;2022-08-03T13:03:04;4.85;;;2.03;;
41943;SDS011;27636;52.610;13.244;2022-08-03T13:08:28;4.03;;;2.00;;
41943;SDS011;27636;52.610;13.244;2022-08-03T13:13:38;2.55;;;1.60;;
41943;SDS011;27636;52.610;13.244;2022-08-03T13:18:43;5.50;;;1.98;;
41943;SDS011;27636;52.610;13.244;2022-08-03T13:23:49;4.20;;;1.88;;
41943;SDS011;27636;52.610;13.244;2022-08-03T13:28:53;6.78;;;1.90;;
41943;SDS011;27636;52.610;13.244;2022-08-03T13:33:57;7.15;;;1.90;;
41943;SDS011;27636;52.610;13.244;2022-08-03T13:39:00;2.72;;;1.50;;
41943;SDS011;27636;52.610;13.244;2022-08-03T13:44:04;5.38;;;1.90;;
41943;SDS011;27636;52.610;13.244;2022-08-03T13:49:28;3.30;;;1.60;;
41943;SDS011;27636;52.610;13.244;2022-08-03T13:54:31;5.10;;;2.38;;
41943;SDS011;27636;52.610;13.244;2022-08-03T13:59:35;3.00;;;1.65;;
41943;SDS011;27636;52.610;13.244;2022-08-03T14:04:40;6.50;;;2.08;;
41943;SDS011;27636;52.610;13.244;2022-08-03T14:09:43;6.50;;;1.70;;
41943;SDS011;27636;52.610;13.244;2022-08-03T14:14:46;4.88;;;1.80;;
41943;SDS011;27636;52.610;13.244;2022-08-03T14:19:51;3.08;;;1.45;;
41943;SDS011;27636;52.610;13.244;2022-08-03T14:24:55;6.25;;;1.90;;
41943;SDS011;27636;52.610;13.244;2022-08-03T14:29:59;3.60;;;1.98;;
41943;SDS011;27636;52.610;13.244;2022-08-03T14:35:05;6.60;;;2.40;;
41943;SDS011;27636;52.610;13.244;2022-08-03T14:40:09;3.40;;;1.70;;
41943;SDS011;27636;52.610;13.244;2022-08-03T14:45:12;3.50;;;1.60;;
41943;SDS011;27636;52.610;13.244;2022-08-03T14:50:23;4.57;;;1.95;;
41943;SDS011;27636;52.610;13.244;2022-08-03T14:55:42;3.80;;;2.25;;
41943;SDS011;27636;52.610;13.244;2022-08-03T15:00:53;4.20;;;1.65;;
41943;SDS011;27636;52.610;13.244;2022-08-03T15:05:58;3.70;;;2.00;;
41943;SDS011;27636;52.610;13.244;2022-08-03T15:11:01;4.38;;;1.70;;
41943;SDS011;27636;52.610;13.244;2022-08-03T15:16:06;5.45;;;1.92;;
41943;SDS011;27636;52.610;13.244;2022-08-03T15:21:11;4.07;;;1.98;;
41943;SDS011;27636;52.610;13.244;2022-08-03T15:26:35;7.25;;;2.00;;
41943;SDS011;27636;52.610;13.244;2022-08-03T15:31:43;4.55;;;1.70;;
41943;SDS011;27636;52.610;13.244;2022-08-03T15:36:47;4.90;;;1.73;;
41943;SDS011;27636;52.610;13.244;2022-08-03T15:41:51;3.80;;;1.83;;
41943;SDS011;27636;52.610;13.244;2022-08-03T15:51:58;2.85;;;1.60;;
41943;SDS011;27636;52.610;13.244;2022-08-03T15:57:02;3.65;;;1.58;;
41943;SDS011;27636;52.610;13.244;2022-08-03T16:02:06;3.95;;;1.90;;
41943;SDS011;27636;52.610;13.244;2022-08-03T16:07:10;2.97;;;1.65;;
41943;SDS011;27636;52.610;13.244;2022-08-03T16:12:15;3.65;;;2.00;;
41943;SDS011;27636;52.610;13.244;2022-08-03T16:17:19;7.65;;;2.90;;
41943;SDS011;27636;52.610;13.244;2022-08-03T16:22:24;5.90;;;2.08;;
41943;SDS011;27636;52.610;13.244;2022-08-03T16:27:28;4.05;;;2.05;;
41943;SDS011;27636;52.610;13.244;2022-08-03T16:32:51;4.10;;;1.75;;
41943;SDS011;27636;52.610;13.244;2022-08-03T16:37:56;7.10;;;1.90;;
41943;SDS011;27636;52.610;13.244;2022-08-03T16:43:00;2.92;;;1.65;;
41943;SDS011;27636;52.610;13.244;2022-08-03T16:48:03;3.33;;;1.60;;
41943;SDS011;27636;52.610;13.244;2022-08-03T16:53:10;5.05;;;1.80;;
41943;SDS011;27636;52.610;13.244;2022-08-03T16:58:18;5.15;;;2.30;;
41943;SDS011;27636;52.610;13.244;2022-08-03T17:03:36;3.13;;;1.70;;
41943;SDS011;27636;52.610;13.244;2022-08-03T17:09:03;3.63;;;1.85;;
41943;SDS011;27636;52.610;13.244;2022-08-03T17:14:11;6.00;;;2.03;;
41943;SDS011;27636;52.610;13.244;2022-08-03T17:19:16;3.25;;;1.63;;
41943;SDS011;27636;52.610;13.244;2022-08-03T17:24:24;3.30;;;1.67;;
41943;SDS011;27636;52.610;13.244;2022-08-03T17:29:31;10.52;;;2.40;;
41943;SDS011;27636;52.610;13.244;2022-08-03T17:34:41;5.10;;;1.80;;
41943;SDS011;27636;52.610;13.244;2022-08-03T17:39:47;4.20;;;1.98;;
41943;SDS011;27636;52.610;13.244;2022-08-03T17:45:01;4.00;;;2.10;;
41943;SDS011;27636;52.610;13.244;2022-08-03T17:50:08;4.65;;;2.00;;
41943;SDS011;27636;52.610;13.244;2022-08-03T17:55:39;13.65;;;3.33;;
41943;SDS011;27636;52.610;13.244;2022-08-03T18:01:00;6.78;;;2.83;;
41943;SDS011;27636;52.610;13.244;2022-08-03T18:11:59;4.55;;;2.40;;
41943;SDS011;27636;52.610;13.244;2022-08-03T18:17:06;4.72;;;2.20;;
41943;SDS011;27636;52.610;13.244;2022-08-03T18:22:18;5.35;;;2.53;;
41943;SDS011;27636;52.610;13.244;2022-08-03T18:27:28;4.43;;;2.50;;
41943;SDS011;27636;52.610;13.244;2022-08-03T18:32:49;4.97;;;2.75;;
41943;SDS011;27636;52.610;13.244;2022-08-03T18:38:12;8.23;;;3.40;;
41943;SDS011;27636;52.610;13.244;2022-08-03T18:43:19;5.70;;;2.70;;
41943;SDS011;27636;52.610;13.244;2022-08-03T18:48:45;6.65;;;2.65;;
41943;SDS011;27636;52.610;13.244;2022-08-03T18:53:56;5.10;;;2.60;;
41943;SDS011;27636;52.610;13.244;2022-08-03T18:59:12;6.57;;;2.63;;
41943;SDS011;27636;52.610;13.244;2022-08-03T19:04:32;5.33;;;2.80;;
41943;SDS011;27636;52.610;13.244;2022-08-03T19:09:40;5.25;;;2.75;;
41943;SDS011;27636;52.610;13.244;2022-08-03T19:14:51;6.22;;;2.85;;
41943;SDS011;27636;52.610;13.244;2022-08-03T19:19:57;7.63;;;2.90;;
41943;SDS011;27636;52.610;13.244;2022-08-03T19:25:03;6.53;;;2.90;;
41943;SDS011;27636;52.610;13.244;2022-08-03T19:30:15;5.95;;;3.15;;
41943;SDS011;27636;52.610;13.244;2022-08-03T19:35:41;5.28;;;2.70;;
41943;SDS011;27636;52.610;13.244;2022-08-03T19:41:05;10.93;;;3.92;;
41943;SDS011;27636;52.610;13.244;2022-08-03T19:46:17;5.72;;;2.80;;
41943;SDS011;27636;52.610;13.244;2022-08-03T19:51:22;6.93;;;3.22;;
41943;SDS011;27636;52.610;13.244;2022-08-03T19:56:51;5.20;;;3.20;;
41943;SDS011;27636;52.610;13.244;2022-08-03T20:01:58;5.80;;;3.42;;
41943;SDS011;27636;52.610;13.244;2022-08-03T20:07:02;5.80;;;3.10;;
41943;SDS011;27636;52.610;13.244;2022-08-03T20:12:06;5.72;;;3.28;;
41943;SDS011;27636;52.610;13.244;2022-08-03T20:17:14;6.28;;;2.88;;
41943;SDS011;27636;52.610;13.244;2022-08-03T20:22:24;6.53;;;2.80;;
41943;SDS011;27636;52.610;13.244;2022-08-03T20:27:29;5.30;;;3.05;;
41943;SDS011;27636;52.610;13.244;2022-08-03T20:33:06;6.03;;;3.88;;
41943;SDS011;27636;52.610;13.244;2022-08-03T20:38:10;5.63;;;3.45;;
41943;SDS011;27636;52.610;13.244;2022-08-03T20:43:13;9.35;;;3.33;;
41943;SDS011;27636;52.610;13.244;2022-08-03T20:48:18;9.05;;;3.50;;
41943;SDS011;27636;52.610;13.244;2022-08-03T20:53:23;6.53;;;3.65;;
41943;SDS011;27636;52.610;13.244;2022-08-03T20:58:47;7.90;;;3.33;;
41943;SDS011;27636;52.610;13.244;2022-08-03T21:03:53;6.28;;;3.50;;
41943;SDS011;27636;52.610;13.244;2022-08-03T21:08:58;7.43;;;3.70;;
41943;SDS011;27636;52.610;13.244;2022-08-03T21:14:07;7.00;;;3.65;;
41943;SDS011;27636;52.610;13.244;2022-08-03T21:19:19;6.93;;;3.30;;
41943;SDS011;27636;52.610;13.244;2022-08-03T21:24:24;8.38;;;3.72;;
41943;SDS011;27636;52.610;13.244;2022-08-03T21:29:28;7.05;;;4.13;;
41943;SDS011;27636;52.610;13.244;2022-08-03T21:34:34;6.13;;;3.67;;
41943;SDS011;27636;52.610;13.244;2022-08-03T21:39:39;7.55;;;3.90;;
41943;SDS011;27636;52.610;13.244;2022-08-03T21:44:52;7.10;;;3.80;;
41943;SDS011;27636;52.610;13.244;2022-08-03T21:49:57;6.85;;;3.47;;
41943;SDS011;27636;52.610;13.244;2022-08-03T21:55:11;6.13;;;3.58;;
41943;SDS011;27636;52.610;13.244;2022-08-03T22:00:22;7.65;;;4.15;;
41943;SDS011;27636;52.610;13.244;2022-08-03T22:05:27;6.28;;;3.55;;
41943;SDS011;27636;52.610;13.244;2022-08-03T22:10:45;7.15;;;3.72;;
41943;SDS011;27636;52.610;13.244;2022-08-03T22:15:50;7.57;;;3.75;;
41943;SDS011;27636;52.610;13.244;2022-08-03T22:20:54;7.03;;;4.10;;
41943;SDS011;27636;52.610;13.244;2022-08-03T22:25:58;8.15;;;4.60;;
41943;SDS011;27636;52.610;13.244;2022-08-03T22:31:06;9.57;;;4.72;;
41943;SDS011;27636;52.610;13.244;2022-08-03T22:36:31;7.72;;;3.80;;
41943;SDS011;27636;52.610;13.244;2022-08-03T22:41:35;7.65;;;4.57;;
41943;SDS011;27636;52.610;13.244;2022-08-03T22:46:39;7.43;;;4.60;;
41943;SDS011;27636;52.610;13.244;2022-08-03T22:51:44;8.40;;;4.90;;
41943;SDS011;27636;52.610;13.244;2022-08-03T22:56:48;6.97;;;4.45;;
41943;SDS011;27636;52.610;13.244;2022-08-03T23:01:52;8.02;;;5.15;;
41943;SDS011;27636;52.610;13.244;2022-08-03T23:07:05;8.90;;;4.40;;
41943;SDS011;27636;52.610;13.244;2022-08-03T23:12:13;9.13;;;4.55;;
41943;SDS011;27636;52.610;13.244;2022-08-03T23:17:18;8.77;;;4.75;;
41943;SDS011;27636;52.610;13.244;2022-08-03T23:22:25;6.38;;;3.92;;
41943;SDS011;27636;52.610;13.244;2022-08-03T23:27:32;9.20;;;4.80;;
41943;SDS011;27636;52.610;13.244;2022-08-03T23:32:36;7.40;;;4.32;;
41943;SDS011;27636;52.610;13.244;2022-08-03T23:37:44;7.82;;;4.10;;
41943;SDS011;27636;52.610;13.244;2022-08-03T23:43:08;8.25;;;4.90;;
41943;SDS011;27636;52.610;13.244;2022-08-03T23:48:32;8.63;;;4.67;;
41943;SDS011;27636;52.610;13.244;2022-08-03T23:53:38;9.40;;;5.22;;
41943;SDS011;27636;52.610;13.244;2022-08-03T23:58:52;8.38;;;4.85;;
